createdAt,value
2017-06-18T00:00:19.613Z,0
2017-06-18T00:01:19.606Z,0
2017-06-18T00:04:19.586Z,0
2017-06-18T00:05:19.584Z,0
2017-06-18T00:06:19.575Z,0
2017-06-18T00:07:19.569Z,0
2017-06-18T00:08:19.278Z,0
2017-06-18T00:09:19.557Z,0
2017-06-18T00:10:19.560Z,0
2017-06-18T00:11:19.246Z,0
2017-06-18T00:12:19.539Z,0
2017-06-18T00:13:19.235Z,0
2017-06-18T00:14:19.527Z,0
2017-06-18T00:15:19.251Z,0
2017-06-18T00:16:19.216Z,0
2017-06-18T00:17:19.213Z,0
2017-06-18T00:18:19.205Z,0
2017-06-18T00:19:19.501Z,0
2017-06-18T00:20:19.195Z,0
2017-06-18T00:21:19.494Z,0
2017-06-18T00:22:19.487Z,0
2017-06-18T00:23:19.478Z,0
2017-06-18T00:24:19.170Z,0
2017-06-18T00:25:19.170Z,0
2017-06-18T00:26:19.159Z,0
2017-06-18T00:27:19.455Z,0
2017-06-18T00:28:19.453Z,0
2017-06-18T00:29:19.447Z,0
2017-06-18T00:30:19.443Z,0
2017-06-18T00:31:19.433Z,0
2017-06-18T00:32:19.454Z,0
2017-06-18T00:33:19.421Z,0
2017-06-18T00:34:19.115Z,0
2017-06-18T00:35:19.408Z,0
2017-06-18T00:36:19.404Z,0
2017-06-18T00:37:19.402Z,0
2017-06-18T00:38:19.396Z,0
2017-06-18T00:39:19.085Z,0
2017-06-18T00:40:19.380Z,0
2017-06-18T00:41:19.377Z,0
2017-06-18T00:42:19.369Z,0
2017-06-18T00:43:19.370Z,0
2017-06-18T00:44:18.751Z,0
2017-06-18T00:45:19.352Z,0
2017-06-18T00:50:20.535Z,0
2017-06-18T00:53:19.009Z,0
2017-06-18T00:54:19.001Z,0
2017-06-18T00:55:19.295Z,0
2017-06-18T00:56:19.286Z,0
2017-06-18T00:57:19.287Z,0
2017-06-18T01:07:19.226Z,0
2017-06-18T01:13:18.888Z,0
2017-06-18T01:14:19.181Z,0
2017-06-18T01:15:19.786Z,0
2017-06-18T01:16:19.071Z,0
2017-06-18T01:17:19.192Z,0
2017-06-18T01:18:19.159Z,0
2017-06-18T01:19:18.848Z,0
2017-06-18T01:21:22.782Z,0
2017-06-18T01:22:19.135Z,0
2017-06-18T01:23:19.130Z,0
2017-06-18T01:24:22.763Z,0
2017-06-18T01:25:19.116Z,0
2017-06-18T01:26:19.111Z,0
2017-06-18T01:27:19.106Z,0
2017-06-18T01:28:19.097Z,0
2017-06-18T01:29:18.790Z,0
2017-06-18T01:30:19.090Z,0
2017-06-18T01:31:19.080Z,0
2017-06-18T01:32:19.073Z,0
2017-06-18T01:33:19.068Z,0
2017-06-18T01:34:19.059Z,0
2017-06-18T01:35:19.058Z,0
2017-06-18T01:36:19.047Z,0
2017-06-18T01:37:19.040Z,0
2017-06-18T01:38:19.036Z,0
2017-06-18T01:39:18.729Z,0
2017-06-18T01:40:18.727Z,0
2017-06-18T01:41:19.053Z,0
2017-06-18T01:42:18.711Z,0
2017-06-18T01:44:18.996Z,0
2017-06-18T01:45:18.700Z,0
2017-06-18T01:46:18.989Z,0
2017-06-18T01:47:18.677Z,0
2017-06-18T01:48:18.366Z,0
2017-06-18T01:49:18.666Z,4
2017-06-18T01:50:18.389Z,4
2017-06-18T01:51:18.955Z,4
2017-06-18T01:52:18.648Z,0
2017-06-18T01:53:18.642Z,0
2017-06-18T01:54:18.642Z,4
2017-06-18T01:55:18.634Z,4
2017-06-18T01:56:18.622Z,4
2017-06-18T01:57:18.624Z,4
2017-06-18T01:58:18.610Z,4
2017-06-18T01:59:18.907Z,8
2017-06-18T02:00:18.900Z,4
2017-06-18T02:01:18.892Z,8
2017-06-18T02:02:18.888Z,8
2017-06-18T02:03:18.887Z,8
2017-06-18T02:04:18.877Z,12
2017-06-18T02:05:18.870Z,12
2017-06-18T02:06:18.866Z,12
2017-06-18T02:07:18.858Z,16
2017-06-18T02:08:18.853Z,16
2017-06-18T02:09:18.843Z,16
2017-06-18T02:10:18.846Z,16
2017-06-18T02:11:18.831Z,24
2017-06-18T02:12:18.529Z,24
2017-06-18T02:13:18.823Z,28
2017-06-18T02:14:18.835Z,32
2017-06-18T02:15:18.507Z,36
2017-06-18T02:16:18.501Z,36
2017-06-18T02:17:18.489Z,40
2017-06-18T02:18:18.787Z,44
2017-06-18T02:19:18.479Z,52
2017-06-18T02:20:18.778Z,56
2017-06-18T02:21:18.769Z,64
2017-06-18T02:22:18.768Z,72
2017-06-18T02:23:18.454Z,80
2017-06-18T02:24:18.783Z,88
2017-06-18T02:25:18.744Z,100
2017-06-18T02:26:18.746Z,108
2017-06-18T02:27:18.429Z,120
2017-06-18T02:28:18.732Z,136
2017-06-18T02:29:18.416Z,148
2017-06-18T02:30:18.719Z,160
2017-06-18T02:31:18.436Z,172
2017-06-18T02:32:18.700Z,192
2017-06-18T02:33:18.695Z,204
2017-06-18T02:34:18.693Z,228
2017-06-18T02:35:18.402Z,244
2017-06-18T02:36:18.374Z,260
2017-06-18T02:37:18.672Z,284
2017-06-18T02:38:18.056Z,304
2017-06-18T02:39:18.656Z,332
2017-06-18T02:41:21.074Z,376
2017-06-18T02:45:18.317Z,488
2017-06-18T02:46:18.310Z,520
2017-06-18T02:47:18.611Z,556
2017-06-18T02:48:18.607Z,592
2017-06-18T02:49:18.293Z,624
2017-06-18T02:50:18.587Z,664
2017-06-18T02:51:18.580Z,700
2017-06-18T02:52:18.576Z,740
2017-06-18T02:54:18.563Z,824
2017-06-18T02:55:18.561Z,864
2017-06-18T02:56:18.551Z,908
2017-06-18T02:57:18.542Z,952
2017-06-18T02:58:18.539Z,1004
2017-06-18T02:59:18.228Z,1048
2017-06-18T03:00:18.226Z,1096
2017-06-18T03:01:18.219Z,1144
2017-06-18T03:02:17.905Z,1192
2017-06-18T03:03:18.506Z,1244
2017-06-18T03:04:18.199Z,1292
2017-06-18T03:05:18.494Z,1344
2017-06-18T03:06:17.882Z,1396
2017-06-18T03:07:18.480Z,1448
2017-06-18T03:08:18.473Z,1500
2017-06-18T03:09:18.469Z,1556
2017-06-18T03:10:18.163Z,1608
2017-06-18T03:11:18.459Z,1672
2017-06-18T03:12:18.450Z,1736
2017-06-18T03:13:18.447Z,1800
2017-06-18T03:14:18.438Z,1864
2017-06-18T03:15:18.130Z,1936
2017-06-18T03:16:18.427Z,2004
2017-06-18T03:17:18.117Z,2132
2017-06-18T03:18:18.414Z,2352
2017-06-18T03:19:18.408Z,2652
2017-06-18T03:20:18.404Z,3012
2017-06-18T03:21:18.093Z,3296
2017-06-18T03:22:18.087Z,3456
2017-06-18T03:23:18.083Z,3588
2017-06-18T03:24:18.378Z,3732
2017-06-18T03:33:18.332Z,5712
2017-06-18T03:34:18.025Z,5772
2017-06-18T03:35:18.324Z,5844
2017-06-18T03:36:18.318Z,6064
2017-06-18T03:37:18.314Z,6308
2017-06-18T03:38:18.005Z,6532
2017-06-18T03:39:18.306Z,6836
2017-06-18T03:40:18.000Z,7100
2017-06-18T03:41:18.299Z,7172
2017-06-18T03:42:18.295Z,7212
2017-06-18T03:43:18.295Z,7260
2017-06-18T03:44:17.684Z,7520
2017-06-18T03:45:18.287Z,7832
2017-06-18T03:46:17.681Z,8072
2017-06-18T03:47:18.285Z,8212
2017-06-18T03:48:18.278Z,8340
2017-06-18T03:49:18.279Z,8580
2017-06-18T03:50:18.278Z,9000
2017-06-18T03:51:18.277Z,9356
2017-06-18T03:52:18.274Z,9520
2017-06-18T03:53:18.273Z,9596
2017-06-18T03:54:17.972Z,9536
2017-06-18T03:55:18.270Z,9684
2017-06-18T03:56:18.273Z,9796
2017-06-18T03:57:18.273Z,10068
2017-06-18T03:58:18.270Z,10284
2017-06-18T03:59:18.272Z,10528
2017-06-18T04:00:18.274Z,10600
2017-06-18T04:01:18.277Z,10868
2017-06-18T04:02:18.274Z,11112
2017-06-18T04:03:18.274Z,10836
2017-06-18T04:04:18.276Z,11060
2017-06-18T04:05:18.277Z,11508
2017-06-18T04:06:18.279Z,11560
2017-06-18T04:07:18.282Z,12500
2017-06-18T04:08:18.284Z,12744
2017-06-18T04:09:18.288Z,13160
2017-06-18T04:10:18.290Z,13824
2017-06-18T04:11:18.296Z,12956
2017-06-18T04:12:17.997Z,13140
2017-06-18T04:13:18.300Z,13396
2017-06-18T04:14:18.004Z,13376
2017-06-18T04:15:18.310Z,13856
2017-06-18T04:16:18.315Z,14208
2017-06-18T04:17:18.317Z,15040
2017-06-18T04:18:18.322Z,15808
2017-06-18T04:19:18.024Z,15648
2017-06-18T04:20:18.335Z,15968
2017-06-18T04:21:18.338Z,16256
2017-06-18T04:22:18.346Z,16352
2017-06-18T04:23:18.350Z,16768
2017-06-18T04:24:18.357Z,18176
2017-06-18T04:25:18.361Z,18656
2017-06-18T04:26:18.065Z,18048
2017-06-18T04:27:18.378Z,18016
2017-06-18T04:28:18.381Z,18208
2017-06-18T04:29:18.385Z,19360
2017-06-18T04:30:18.397Z,18720
2017-06-18T04:31:18.401Z,17888
2017-06-18T04:32:18.411Z,19904
2017-06-18T04:33:18.111Z,20384
2017-06-18T04:34:18.423Z,20096
2017-06-18T04:35:18.432Z,20992
2017-06-18T04:36:18.438Z,20448
2017-06-18T04:37:18.445Z,21152
2017-06-18T04:38:18.162Z,22560
2017-06-18T04:39:18.460Z,22176
2017-06-18T04:40:18.165Z,23136
2017-06-18T04:41:18.479Z,24320
2017-06-18T04:42:18.491Z,24864
2017-06-18T04:43:18.194Z,26272
2017-06-18T04:44:18.504Z,26304
2017-06-18T04:45:18.514Z,25856
2017-06-18T04:46:18.223Z,27360
2017-06-18T04:47:18.533Z,28832
2017-06-18T04:48:18.539Z,27456
2017-06-18T04:49:18.550Z,25664
2017-06-18T04:50:18.560Z,27008
2017-06-18T04:51:18.571Z,29824
2017-06-18T04:52:18.580Z,29952
2017-06-18T04:53:18.592Z,28544
2017-06-18T04:54:18.597Z,28832
2017-06-18T04:55:18.613Z,29088
2017-06-18T04:56:18.621Z,28352
2017-06-18T04:57:18.636Z,28576
2017-06-18T04:58:18.638Z,28704
2017-06-18T04:59:18.651Z,27904
2017-06-18T05:00:18.661Z,28224
2017-06-18T05:01:18.676Z,30624
2017-06-18T05:02:18.682Z,31872
2017-06-18T05:03:18.693Z,30592
2017-06-18T05:04:18.701Z,29760
2017-06-18T05:05:18.714Z,31488
2017-06-18T05:06:18.723Z,33728
2017-06-18T05:07:18.735Z,33664
2017-06-18T05:08:18.748Z,32384
2017-06-18T05:09:18.760Z,31584
2017-06-18T05:10:18.770Z,32576
2017-06-18T05:11:18.780Z,34560
2017-06-18T05:12:18.486Z,34464
2017-06-18T05:13:18.500Z,33440
2017-06-18T05:14:18.819Z,34048
2017-06-18T05:15:18.828Z,36416
2017-06-18T05:16:18.532Z,37536
2017-06-18T05:17:18.545Z,38400
2017-06-18T05:18:18.859Z,40064
2017-06-18T05:19:18.568Z,40320
2017-06-18T05:20:18.886Z,40608
2017-06-18T05:21:18.895Z,41440
2017-06-18T05:22:18.915Z,40576
2017-06-18T05:23:18.619Z,38464
2017-06-18T05:24:18.963Z,39008
2017-06-18T05:25:20.971Z,42304
2017-06-18T05:26:18.959Z,42592
2017-06-18T05:27:18.974Z,39904
2017-06-18T05:28:18.379Z,39552
2017-06-18T05:29:18.997Z,42464
2017-06-18T05:30:19.014Z,43744
2017-06-18T05:31:19.025Z,41440
2017-06-18T05:32:19.037Z,38592
2017-06-18T05:33:18.745Z,38944
2017-06-18T05:34:19.062Z,41408
2017-06-18T05:35:19.075Z,44096
2017-06-18T05:36:19.087Z,44320
2017-06-18T05:37:19.103Z,42976
2017-06-18T05:38:19.118Z,42560
2017-06-18T05:39:19.126Z,43584
2017-06-18T05:40:19.143Z,43904
2017-06-18T05:41:18.854Z,42848
2017-06-18T05:42:19.168Z,43552
2017-06-18T05:43:19.189Z,44960
2017-06-18T05:44:18.893Z,45536
2017-06-18T05:45:19.212Z,45248
2017-06-18T05:46:19.224Z,45376
2017-06-18T05:47:18.943Z,46176
2017-06-18T05:48:19.257Z,46816
2017-06-18T05:49:19.267Z,45056
2017-06-18T05:50:19.286Z,44896
2017-06-18T05:51:19.298Z,47456
2017-06-18T05:52:19.314Z,52672
2017-06-18T05:53:19.327Z,54560
2017-06-18T05:54:19.037Z,50752
2017-06-18T05:55:19.356Z,46240
2017-06-18T05:56:19.375Z,46816
2017-06-18T05:57:19.390Z,51136
2017-06-18T05:58:19.099Z,53920
2017-06-18T05:59:19.416Z,52736
2017-06-18T06:00:19.433Z,50688
2017-06-18T06:01:19.447Z,49600
2017-06-18T06:02:19.464Z,49408
2017-06-18T06:03:19.479Z,51040
2017-06-18T06:04:19.494Z,53600
2017-06-18T06:05:19.511Z,56192
2017-06-18T06:06:19.569Z,56832
2017-06-18T06:07:19.239Z,54560
2017-06-18T06:08:19.559Z,52320
2017-06-18T06:09:19.577Z,54816
2017-06-18T06:10:19.592Z,58624
2017-06-18T06:11:19.609Z,60384
2017-06-18T06:12:19.632Z,58848
2017-06-18T06:13:19.643Z,54560
2017-06-18T06:14:19.354Z,51520
2017-06-18T06:15:19.678Z,51872
2017-06-18T06:16:19.697Z,52160
2017-06-18T06:17:19.713Z,50080
2017-06-18T06:18:19.731Z,47488
2017-06-18T06:19:19.746Z,47456
2017-06-18T06:20:19.764Z,49632
2017-06-18T06:21:19.783Z,51168
2017-06-18T06:22:19.800Z,51392
2017-06-18T06:23:19.818Z,50144
2017-06-18T06:24:19.835Z,47264
2017-06-18T06:25:19.856Z,45216
2017-06-18T06:26:19.570Z,43744
2017-06-18T06:27:19.891Z,41312
2017-06-18T06:28:19.910Z,39488
2017-06-18T06:29:19.927Z,38656
2017-06-18T06:30:19.642Z,39264
2017-06-18T06:31:19.965Z,39488
2017-06-18T06:32:19.982Z,39776
2017-06-18T06:33:20.011Z,39744
2017-06-18T06:34:19.719Z,38624
2017-06-18T06:35:20.040Z,36096
2017-06-18T06:36:20.061Z,32992
2017-06-18T06:37:20.080Z,32000
2017-06-18T06:38:20.101Z,37632
2017-06-18T06:39:20.116Z,48288
2017-06-18T06:40:20.139Z,58080
2017-06-18T06:41:20.157Z,66656
2017-06-18T06:42:20.177Z,70336
2017-06-18T06:43:20.195Z,73024
2017-06-18T06:44:19.912Z,73856
2017-06-18T06:45:20.237Z,72576
2017-06-18T06:46:19.953Z,67520
2017-06-18T06:47:20.277Z,62592
2017-06-18T06:48:19.998Z,62784
2017-06-18T06:49:20.315Z,64768
2017-06-18T06:50:20.036Z,68384
2017-06-18T06:51:20.357Z,75008
2017-06-18T06:52:20.377Z,82208
2017-06-18T06:53:20.399Z,90112
2017-06-18T06:54:20.414Z,98368
2017-06-18T06:55:20.438Z,105248
2017-06-18T06:56:20.152Z,110624
2017-06-18T06:58:20.496Z,122816
2017-06-18T06:59:20.214Z,128992
2017-06-18T07:00:20.541Z,127200
2017-06-18T07:01:20.257Z,128320
2017-06-18T07:02:20.275Z,122144
2017-06-18T07:03:20.602Z,113248
2017-06-18T07:04:20.619Z,99392
2017-06-18T07:05:20.644Z,89568
2017-06-18T07:06:20.663Z,83584
2017-06-18T07:07:20.682Z,83456
2017-06-18T07:08:20.704Z,97728
2017-06-18T07:09:20.724Z,120384
2017-06-18T07:10:20.745Z,142880
2017-06-18T07:11:20.764Z,168768
2017-06-18T07:12:20.787Z,117696
2017-06-18T07:13:20.502Z,193344
2017-06-18T07:14:20.829Z,188160
2017-06-18T07:15:20.852Z,188192
2017-06-18T07:16:20.565Z,172896
2017-06-18T07:17:20.891Z,150784
2017-06-18T07:18:20.916Z,138720
2017-06-18T07:19:20.932Z,140608
2017-06-18T07:20:20.952Z,153984
2017-06-18T07:21:20.974Z,177568
2017-06-18T07:22:20.999Z,18976
2017-06-18T07:24:21.037Z,185312
2017-06-18T07:25:21.059Z,170432
2017-06-18T07:26:21.078Z,149184
2017-06-18T07:27:21.104Z,140224
2017-06-18T07:28:21.120Z,133408
2017-06-18T07:29:22.964Z,137632
2017-06-18T07:30:22.075Z,100192
2017-06-18T07:31:21.185Z,31584
2017-06-18T07:32:21.206Z,28864
2017-06-18T07:33:20.919Z,86016
2017-06-18T07:34:21.244Z,43904
2017-06-18T07:35:21.262Z,50624
2017-06-18T07:36:21.284Z,21856
2017-06-18T07:37:21.306Z,25504
2017-06-18T07:38:21.323Z,19840
2017-06-18T07:39:21.344Z,108256
2017-06-18T07:40:21.366Z,15036
2017-06-18T07:41:21.383Z,117568
2017-06-18T07:42:21.398Z,110272
2017-06-18T07:43:21.418Z,94464
2017-06-18T07:44:21.134Z,20320
2017-06-18T07:45:21.457Z,91904
2017-06-18T07:46:21.486Z,71328
2017-06-18T07:47:21.488Z,56928
2017-06-18T07:48:21.512Z,44864
2017-06-18T07:49:21.223Z,42272
2017-06-18T07:50:21.548Z,34688
2017-06-18T07:51:21.564Z,35136
2017-06-18T07:52:21.582Z,39232
2017-06-18T07:53:21.298Z,35232
2017-06-18T07:54:21.623Z,41056
2017-06-18T07:55:21.638Z,37248
2017-06-18T07:56:21.660Z,16496
2017-06-18T07:57:21.675Z,56352
2017-06-18T07:58:21.695Z,21536
2017-06-18T07:59:21.712Z,22688
2017-06-18T08:00:21.431Z,20384
2017-06-18T08:01:21.448Z,21408
2017-06-18T08:02:21.466Z,62464
2017-06-18T08:03:21.785Z,58816
2017-06-18T08:04:21.805Z,21888
2017-06-18T08:05:21.823Z,61536
2017-06-18T08:06:21.534Z,61888
2017-06-18T08:07:21.856Z,62016
2017-06-18T08:08:21.570Z,62432
2017-06-18T08:09:21.587Z,63392
2017-06-18T08:10:21.912Z,64672
2017-06-18T08:11:21.928Z,64096
2017-06-18T08:12:21.947Z,64672
2017-06-18T08:13:21.965Z,67680
2017-06-18T08:14:21.982Z,13964
2017-06-18T08:15:22.000Z,11208
2017-06-18T08:16:22.017Z,12740
2017-06-18T08:17:22.038Z,13948
2017-06-18T08:18:22.052Z,100768
2017-06-18T08:19:22.071Z,106688
2017-06-18T08:20:21.786Z,100640
2017-06-18T08:21:21.804Z,105056
2017-06-18T08:22:22.127Z,96800
2017-06-18T08:23:22.142Z,80448
2017-06-18T08:24:22.160Z,80000
2017-06-18T08:25:21.571Z,83072
2017-06-18T08:26:22.196Z,83648
2017-06-18T08:27:22.213Z,86464
2017-06-18T08:28:22.234Z,92096
2017-06-18T08:29:22.248Z,63840
2017-06-18T08:30:22.266Z,93216
2017-06-18T08:31:22.286Z,93984
2017-06-18T08:32:22.304Z,97056
2017-06-18T08:33:22.624Z,99584
2017-06-18T08:34:22.338Z,100704
2017-06-18T08:35:22.359Z,97728
2017-06-18T08:36:22.381Z,97664
2017-06-18T08:37:22.395Z,97088
2017-06-18T08:38:22.454Z,92544
2017-06-18T08:39:21.825Z,90176
2017-06-18T08:40:22.455Z,90656
2017-06-18T08:41:21.865Z,78016
2017-06-18T08:42:22.495Z,91008
2017-06-18T08:43:22.508Z,93632
2017-06-18T08:44:22.528Z,90816
2017-06-18T08:45:22.545Z,93120
2017-06-18T08:46:21.957Z,55360
2017-06-18T08:47:22.586Z,24768
2017-06-18T08:48:22.297Z,102560
2017-06-18T08:49:22.619Z,103744
2017-06-18T08:50:22.641Z,58144
2017-06-18T08:51:22.349Z,15144
2017-06-18T08:52:22.673Z,14384
2017-06-18T08:53:22.693Z,101952
2017-06-18T08:54:22.709Z,28384
2017-06-18T08:55:22.723Z,65024
2017-06-18T08:56:22.741Z,57888
2017-06-18T08:57:22.759Z,100576
2017-06-18T08:58:22.777Z,100032
2017-06-18T08:59:22.788Z,91744
2017-06-18T09:00:22.807Z,47040
2017-06-18T09:01:22.820Z,12920
2017-06-18T09:02:22.227Z,14472
2017-06-18T09:03:22.847Z,17728
2017-06-18T09:04:22.565Z,19520
2017-06-18T09:05:22.877Z,19936
2017-06-18T09:06:22.600Z,20000
2017-06-18T09:07:22.904Z,19840
2017-06-18T09:08:22.617Z,17472
2017-06-18T09:09:22.928Z,16160
2017-06-18T09:10:22.973Z,14084
2017-06-18T09:11:22.957Z,11704
2017-06-18T09:12:22.967Z,11188
2017-06-18T09:13:22.981Z,11972
2017-06-18T09:14:22.384Z,12968
2017-06-18T09:15:23.001Z,13544
2017-06-18T09:16:22.712Z,10912
2017-06-18T09:17:23.020Z,9940
2017-06-18T09:18:23.039Z,9168
2017-06-18T09:19:23.038Z,8752
2017-06-18T09:20:23.050Z,7796
2017-06-18T09:21:23.059Z,8040
2017-06-18T09:22:23.068Z,8920
2017-06-18T09:23:23.079Z,10244
2017-06-18T09:24:23.085Z,12160
2017-06-18T09:25:23.100Z,11100
2017-06-18T09:26:23.104Z,11048
2017-06-18T09:27:23.112Z,11204
2017-06-18T09:28:22.825Z,11672
2017-06-18T09:29:22.825Z,10912
2017-06-18T09:30:23.138Z,9988
2017-06-18T09:31:23.148Z,8936
2017-06-18T09:32:23.150Z,8348
2017-06-18T09:33:23.164Z,7748
2017-06-18T09:34:22.864Z,7480
2017-06-18T09:35:23.175Z,7392
2017-06-18T09:36:23.178Z,7252
2017-06-18T09:37:23.187Z,6984
2017-06-18T09:38:23.199Z,6844
2017-06-18T09:39:23.198Z,6752
2017-06-18T09:40:23.203Z,6684
2017-06-18T09:41:22.905Z,6588
2017-06-18T09:42:23.217Z,6588
2017-06-18T09:43:23.223Z,6688
2017-06-18T09:44:22.618Z,7028
2017-06-18T09:45:23.235Z,7300
2017-06-18T09:46:23.238Z,7420
2017-06-18T09:47:23.243Z,7344
2017-06-18T09:48:22.946Z,6984
2017-06-18T09:49:23.252Z,6712
2017-06-18T09:50:23.256Z,6560
2017-06-18T09:51:23.279Z,6408
2017-06-18T09:52:23.269Z,6200
2017-06-18T09:53:23.269Z,6192
2017-06-18T09:54:22.972Z,6164
2017-06-18T09:55:23.280Z,6280
2017-06-18T09:56:23.285Z,6588
2017-06-18T09:57:23.288Z,6704
2017-06-18T09:58:23.291Z,6516
2017-06-18T09:59:22.690Z,6240
2017-06-18T10:00:23.300Z,6048
2017-06-18T10:01:23.306Z,5952
2017-06-18T10:02:23.313Z,5912
2017-06-18T10:03:23.009Z,5892
2017-06-18T10:04:23.015Z,5888
2017-06-18T10:05:23.019Z,5912
2017-06-18T10:06:23.330Z,5940
2017-06-18T10:07:23.331Z,5996
2017-06-18T10:08:23.331Z,6056
2017-06-18T10:09:23.036Z,6116
2017-06-18T10:10:23.339Z,6212
2017-06-18T10:11:23.343Z,6400
2017-06-18T10:12:23.042Z,6424
2017-06-18T10:13:23.350Z,6444
2017-06-18T10:14:23.050Z,6548
2017-06-18T10:15:23.356Z,6612
2017-06-18T10:16:23.360Z,6428
2017-06-18T10:17:23.059Z,6356
2017-06-18T10:18:23.369Z,6200
2017-06-18T10:19:23.375Z,5940
2017-06-18T10:20:23.072Z,5840
2017-06-18T10:21:23.074Z,5788
2017-06-18T10:22:23.384Z,5772
2017-06-18T10:23:23.082Z,5756
2017-06-18T10:24:23.389Z,5752
2017-06-18T10:25:23.395Z,5700
2017-06-18T10:26:23.394Z,5604
2017-06-18T10:27:23.397Z,5480
2017-06-18T10:28:23.403Z,5396
2017-06-18T10:29:23.404Z,5380
2017-06-18T10:30:23.104Z,5384
2017-06-18T10:31:23.413Z,5404
2017-06-18T10:32:23.414Z,5444
2017-06-18T10:33:23.443Z,5528
2017-06-18T10:34:24.633Z,5616
2017-06-18T10:35:23.424Z,5760
2017-06-18T10:36:23.427Z,5824
2017-06-18T10:37:23.427Z,5940
2017-06-18T10:38:23.434Z,6112
2017-06-18T10:39:22.829Z,6076
2017-06-18T10:40:23.445Z,5852
2017-06-18T10:41:23.457Z,5644
2017-06-18T10:42:23.444Z,5520
2017-06-18T10:43:23.450Z,5456
2017-06-18T10:44:23.450Z,5416
2017-06-18T10:45:23.455Z,5396
2017-06-18T10:46:23.463Z,5388
2017-06-18T10:47:23.458Z,5364
2017-06-18T10:48:23.161Z,5368
2017-06-18T10:49:23.464Z,5332
2017-06-18T10:50:23.472Z,5292
2017-06-18T10:51:23.476Z,5240
2017-06-18T10:52:23.477Z,5180
2017-06-18T10:53:23.482Z,5164
2017-06-18T10:54:23.179Z,5180
2017-06-18T10:55:23.486Z,5180
2017-06-18T10:56:23.487Z,5140
2017-06-18T10:57:23.532Z,5076
2017-06-18T10:58:23.192Z,4968
2017-06-18T10:59:23.496Z,4940
2017-06-18T11:00:23.501Z,4888
2017-06-18T11:01:23.507Z,4844
2017-06-18T11:02:23.511Z,4828
2017-06-18T11:03:23.511Z,4828
2017-06-18T11:04:23.213Z,4840
2017-06-18T11:05:23.516Z,4852
2017-06-18T11:06:23.236Z,4872
2017-06-18T11:07:23.524Z,4896
2017-06-18T11:08:23.222Z,4928
2017-06-18T11:09:23.531Z,4940
2017-06-18T11:10:23.532Z,4944
2017-06-18T11:11:23.534Z,4944
2017-06-18T11:12:23.538Z,4936
2017-06-18T11:13:23.543Z,4932
2017-06-18T11:14:23.547Z,4908
2017-06-18T11:15:23.550Z,4880
2017-06-18T11:16:23.552Z,4848
2017-06-18T11:17:23.554Z,4836
2017-06-18T11:18:23.553Z,4840
2017-06-18T11:19:23.560Z,4848
2017-06-18T11:20:23.560Z,4852
2017-06-18T11:21:23.260Z,4848
2017-06-18T11:22:23.265Z,4836
2017-06-18T11:23:23.266Z,4824
2017-06-18T11:24:23.270Z,4832
2017-06-18T11:25:23.579Z,4844
2017-06-18T11:26:23.275Z,4852
2017-06-18T11:27:23.586Z,4848
2017-06-18T11:28:23.587Z,4828
2017-06-18T11:29:23.292Z,4800
2017-06-18T11:30:23.595Z,4776
2017-06-18T11:31:23.598Z,4748
2017-06-18T11:32:23.598Z,4712
2017-06-18T11:33:23.599Z,4684
2017-06-18T11:34:23.302Z,4656
2017-06-18T11:35:23.304Z,4640
2017-06-18T11:36:23.611Z,4628
2017-06-18T11:37:23.314Z,4628
2017-06-18T11:38:23.617Z,4632
2017-06-18T11:39:23.621Z,4648
2017-06-18T11:40:23.015Z,4672
2017-06-18T11:41:23.021Z,4696
2017-06-18T11:42:23.333Z,4704
2017-06-18T11:43:23.631Z,4716
2017-06-18T11:44:23.330Z,4716
2017-06-18T11:45:23.643Z,4708
2017-06-18T11:46:23.647Z,4700
2017-06-18T11:47:23.645Z,4692
2017-06-18T11:48:23.345Z,4688
2017-06-18T11:49:23.651Z,4680
2017-06-18T11:50:23.654Z,4684
2017-06-18T11:51:23.658Z,4684
2017-06-18T11:52:23.662Z,4684
2017-06-18T11:53:23.360Z,4676
2017-06-18T11:54:23.667Z,4680
2017-06-18T11:55:23.671Z,4668
2017-06-18T11:56:23.677Z,4660
2017-06-18T11:57:23.678Z,4652
2017-06-18T11:58:23.679Z,4652
2017-06-18T11:59:23.683Z,4648
2017-06-18T12:00:23.383Z,4640
2017-06-18T12:01:23.690Z,4628
2017-06-18T12:02:23.692Z,4616
2017-06-18T12:03:23.392Z,4604
2017-06-18T12:04:23.090Z,4596
2017-06-18T12:05:23.406Z,4584
2017-06-18T12:06:23.706Z,4568
2017-06-18T12:07:23.708Z,4540
2017-06-18T12:08:23.716Z,4524
2017-06-18T12:09:23.715Z,4520
2017-06-18T12:10:23.723Z,4524
2017-06-18T12:11:23.725Z,4540
2017-06-18T12:12:23.722Z,4544
2017-06-18T12:13:23.425Z,4548
2017-06-18T12:14:23.731Z,4544
2017-06-18T12:15:23.127Z,4532
2017-06-18T12:16:23.740Z,4520
2017-06-18T12:17:23.740Z,4508
2017-06-18T12:18:23.742Z,4488
2017-06-18T12:19:23.772Z,4456
2017-06-18T12:20:23.443Z,4440
2017-06-18T12:21:23.753Z,4436
2017-06-18T12:22:23.765Z,4440
2017-06-18T12:23:23.757Z,4444
2017-06-18T12:24:23.770Z,4440
2017-06-18T12:25:23.768Z,4424
2017-06-18T12:26:23.774Z,4416
2017-06-18T12:27:23.769Z,4408
2017-06-18T12:28:23.773Z,4396
2017-06-18T12:29:23.777Z,4380
2017-06-18T12:30:23.782Z,4368
2017-06-18T12:31:23.786Z,4356
2017-06-18T12:32:23.788Z,4356
2017-06-18T12:33:23.789Z,4340
2017-06-18T12:34:23.797Z,4328
2017-06-18T12:35:23.498Z,4308
2017-06-18T12:36:23.513Z,4292
2017-06-18T12:37:23.512Z,4280
2017-06-18T12:38:23.807Z,4268
2017-06-18T12:39:23.811Z,4260
2017-06-18T12:40:23.817Z,4264
2017-06-18T12:41:23.819Z,4264
2017-06-18T12:42:23.219Z,4268
2017-06-18T12:43:23.522Z,4276
2017-06-18T12:44:23.829Z,4280
2017-06-18T12:45:23.527Z,4288
2017-06-18T12:46:23.838Z,4284
2017-06-18T12:47:23.839Z,4280
2017-06-18T12:48:23.844Z,4280
2017-06-18T12:49:23.851Z,4272
2017-06-18T12:50:23.547Z,4268
2017-06-18T12:51:23.549Z,4272
2017-06-18T12:52:23.554Z,4276
2017-06-18T12:53:23.858Z,4276
2017-06-18T12:54:23.868Z,4276
2017-06-18T12:55:23.568Z,4284
2017-06-18T12:56:23.868Z,4284
2017-06-18T12:57:23.875Z,4288
2017-06-18T12:58:23.887Z,4292
2017-06-18T12:59:23.879Z,4296
2017-06-18T13:00:23.581Z,4308
2017-06-18T13:01:23.890Z,4316
2017-06-18T13:02:23.888Z,4328
2017-06-18T13:03:23.894Z,4340
2017-06-18T13:04:23.289Z,4348
2017-06-18T13:05:23.603Z,4348
2017-06-18T13:06:23.296Z,4352
2017-06-18T13:07:23.908Z,4352
2017-06-18T13:08:23.911Z,4352
2017-06-18T13:09:23.611Z,4336
2017-06-18T13:10:23.615Z,4324
2017-06-18T13:11:23.621Z,4316
2017-06-18T13:12:23.621Z,4308
2017-06-18T13:13:23.624Z,4300
2017-06-18T13:14:23.625Z,4288
2017-06-18T13:15:23.628Z,4280
2017-06-18T13:16:23.633Z,4268
2017-06-18T13:17:23.637Z,4264
2017-06-18T13:18:23.638Z,4268
2017-06-18T13:19:23.642Z,4268
2017-06-18T13:20:23.949Z,4268
2017-06-18T13:21:23.656Z,4272
2017-06-18T13:22:23.656Z,4280
2017-06-18T13:23:23.658Z,4280
2017-06-18T13:24:23.965Z,4284
2017-06-18T13:25:23.965Z,4288
2017-06-18T13:26:23.667Z,4296
2017-06-18T13:27:23.670Z,4296
2017-06-18T13:28:23.367Z,4300
2017-06-18T13:29:23.685Z,4304
2017-06-18T13:30:23.680Z,4296
2017-06-18T13:31:23.684Z,4292
2017-06-18T13:32:23.684Z,4276
2017-06-18T13:33:23.689Z,4248
2017-06-18T13:34:23.690Z,4224
2017-06-18T13:35:24.003Z,4208
2017-06-18T13:36:24.002Z,4200
2017-06-18T13:37:24.002Z,4204
2017-06-18T13:38:23.704Z,4212
2017-06-18T13:39:23.707Z,4216
2017-06-18T13:40:23.710Z,4220
2017-06-18T13:41:24.021Z,4224
2017-06-18T13:42:23.720Z,4224
2017-06-18T13:43:24.024Z,4224
2017-06-18T13:44:23.730Z,4220
2017-06-18T13:45:23.739Z,4212
2017-06-18T13:46:23.732Z,4204
2017-06-18T13:47:23.734Z,4192
2017-06-18T13:48:23.739Z,4184
2017-06-18T13:49:24.047Z,4176
2017-06-18T13:50:24.047Z,4168
2017-06-18T13:51:23.745Z,4152
2017-06-18T13:52:23.755Z,4144
2017-06-18T13:53:23.755Z,4128
2017-06-18T13:54:23.768Z,4116
2017-06-18T13:55:23.759Z,4112
2017-06-18T13:56:23.772Z,4116
2017-06-18T13:57:23.769Z,4112